createdAt,value
2023-01-29T00:02:04.773Z,98078.92
2023-01-29T00:04:33.118Z,98083.41
2023-01-29T00:07:01.703Z,98082.36
2023-01-29T00:09:31.830Z,98087.21
2023-01-29T00:12:00.311Z,98090.03
2023-01-29T00:14:28.764Z,98092.12
2023-01-29T00:16:57.514Z,98093.40
2023-01-29T00:19:25.934Z,98093.85
2023-01-29T00:21:54.215Z,98092.39
2023-01-29T00:24:25.186Z,98091.13
2023-01-29T00:26:55.007Z,98090.31
2023-01-29T00:29:24.107Z,98089.26
2023-01-29T00:31:52.923Z,98090.55
2023-01-29T00:34:23.111Z,98090.51
2023-01-29T00:36:51.771Z,98092.20
2023-01-29T00:39:31.489Z,98091.79
2023-01-29T00:42:26.141Z,98091.25
2023-01-29T00:45:03.200Z,98090.29
2023-01-29T00:47:35.143Z,98089.49
2023-01-29T00:50:06.852Z,98089.31
2023-01-29T00:52:36.903Z,98088.00
2023-01-29T00:55:06.236Z,98090.63
2023-01-29T00:57:36.495Z,98091.46
2023-01-29T01:00:07.273Z,98093.61
2023-01-29T01:02:54.199Z,98091.45
2023-01-29T01:05:23.826Z,98091.35
2023-01-29T01:07:55.899Z,98095.67
2023-01-29T01:10:31.014Z,98096.70
2023-01-29T01:13:05.851Z,98096.95
2023-01-29T01:15:40.581Z,98093.37
2023-01-29T01:18:08.893Z,98090.59
2023-01-29T01:20:37.454Z,98089.98
2023-01-29T01:23:05.875Z,98086.77
2023-01-29T01:25:34.191Z,98088.27
2023-01-29T01:28:02.707Z,98087.19
2023-01-29T01:30:31.063Z,98085.58
2023-01-29T01:33:00.856Z,98083.73
2023-01-29T01:35:29.732Z,98079.87
2023-01-29T01:37:57.965Z,98075.89
2023-01-29T01:40:26.349Z,98073.83
2023-01-29T01:42:59.024Z,98073.30
2023-01-29T01:45:33.438Z,98074.92
2023-01-29T01:48:07.801Z,98074.21
2023-01-29T01:50:48.924Z,98079.46
2023-01-29T01:53:23.408Z,98080.45
2023-01-29T01:55:57.733Z,98083.83
2023-01-29T01:58:37.376Z,98083.61
2023-01-29T02:01:08.015Z,98087.46
2023-01-29T02:04:02.925Z,98087.23
2023-01-29T02:06:51.175Z,98090.67
2023-01-29T02:09:36.591Z,98090.61
2023-01-29T02:12:12.701Z,98091.05
2023-01-29T02:14:42.810Z,98089.41
2023-01-29T02:17:17.152Z,98086.08
2023-01-29T02:19:58.364Z,98087.60
2023-01-29T02:22:55.495Z,98089.62
2023-01-29T02:25:51.008Z,98094.58
2023-01-29T02:28:56.410Z,98093.75
2023-01-29T02:31:41.759Z,98091.84
2023-01-29T02:34:28.817Z,98093.54
2023-01-29T02:37:06.939Z,98096.95
2023-01-29T02:39:44.100Z,98099.60
2023-01-29T02:42:38.969Z,98096.80
2023-01-29T02:45:16.022Z,98100.21
2023-01-29T02:48:00.917Z,98104.04
2023-01-29T02:51:05.321Z,98109.39
2023-01-29T02:54:04.551Z,98111.58
2023-01-29T02:56:46.674Z,98117.48
2023-01-29T02:59:21.046Z,98128.48
2023-01-29T03:01:55.946Z,98133.52
2023-01-29T03:04:33.407Z,98139.47
2023-01-29T03:07:10.777Z,98139.13
2023-01-29T03:09:49.271Z,98137.86
2023-01-29T03:12:35.167Z,98135.30
2023-01-29T03:15:12.905Z,98137.88
2023-01-29T03:17:52.663Z,98144.04
2023-01-29T03:20:26.705Z,98148.05
2023-01-29T03:23:02.837Z,98149.69
2023-01-29T03:25:54.147Z,98152.85
2023-01-29T03:28:42.989Z,98149.10
2023-01-29T03:31:32.483Z,98153.01
2023-01-29T03:34:10.080Z,98147.29
2023-01-29T03:36:49.531Z,98153.00
2023-01-29T03:39:18.272Z,98156.07
2023-01-29T03:42:05.093Z,98158.17
2023-01-29T03:44:49.002Z,98159.50
2023-01-29T03:47:37.294Z,98162.25
2023-01-29T03:50:36.221Z,98160.36
2023-01-29T03:53:23.484Z,98161.44
2023-01-29T03:56:16.139Z,98165.21
2023-01-29T03:59:02.575Z,98163.39
2023-01-29T04:01:55.102Z,98160.65
2023-01-29T04:04:37.964Z,98161.23
2023-01-29T04:07:12.550Z,98161.06
2023-01-29T04:09:49.637Z,98162.71
2023-01-29T04:12:27.216Z,98161.76
2023-01-29T04:14:59.747Z,98166.45
2023-01-29T04:17:34.836Z,98168.55
2023-01-29T04:20:27.389Z,98166.48
2023-01-29T04:22:56.197Z,98164.73
2023-01-29T04:25:29.199Z,98165.83
2023-01-29T04:28:08.881Z,98159.64
2023-01-29T04:30:48.209Z,98158.50
2023-01-29T04:33:35.556Z,98156.47
2023-01-29T04:36:37.440Z,98153.67
2023-01-29T04:39:24.484Z,98153.89
2023-01-29T04:42:14.054Z,98150.99
2023-01-29T04:44:51.754Z,98158.33
2023-01-29T04:47:35.764Z,98162.69
2023-01-29T04:50:09.973Z,98163.64
2023-01-29T04:52:38.066Z,98164.45
2023-01-29T04:55:36.309Z,98168.61
2023-01-29T04:58:29.699Z,98171.80
2023-01-29T05:01:01.349Z,98170.00
2023-01-29T05:03:32.735Z,98172.71
2023-01-29T05:06:02.807Z,98175.15
2023-01-29T05:08:33.252Z,98179.33
2023-01-29T05:11:01.558Z,98185.61
2023-01-29T05:13:32.057Z,98188.77
2023-01-29T05:16:14.836Z,98190.93
2023-01-29T05:18:45.650Z,98195.02
2023-01-29T05:21:13.946Z,98197.60
2023-01-29T05:23:53.429Z,98194.84
2023-01-29T05:26:41.387Z,98198.44
2023-01-29T05:29:09.672Z,98199.70
2023-01-29T05:31:37.972Z,98202.45
2023-01-29T05:34:07.078Z,98201.13
2023-01-29T05:36:35.467Z,98204.60
2023-01-29T05:39:04.332Z,98205.25
2023-01-29T05:41:32.713Z,98212.22
2023-01-29T05:44:01.027Z,98213.27
2023-01-29T05:46:29.371Z,98210.65
2023-01-29T05:48:57.549Z,98214.67
2023-01-29T05:51:25.941Z,98221.02
2023-01-29T05:53:54.263Z,98214.52
2023-01-29T05:56:22.718Z,98215.88
2023-01-29T05:58:50.969Z,98216.77
2023-01-29T06:01:21.864Z,98220.84
2023-01-29T06:03:50.077Z,98225.66
2023-01-29T06:06:18.556Z,98226.20
2023-01-29T06:08:47.793Z,98230.27
2023-01-29T06:11:18.400Z,98232.70
2023-01-29T06:13:46.777Z,98236.41
2023-01-29T06:16:16.176Z,98237.95
2023-01-29T06:18:44.518Z,98242.88
2023-01-29T06:21:14.456Z,98243.16
2023-01-29T06:23:42.770Z,98245.84
2023-01-29T06:26:13.662Z,98249.14
2023-01-29T06:28:42.451Z,98246.57
2023-01-29T06:31:30.422Z,98248.83
2023-01-29T06:34:00.245Z,98243.55
2023-01-29T06:36:28.837Z,98242.79
2023-01-29T06:38:57.102Z,98245.36
2023-01-29T06:41:25.795Z,98247.77
2023-01-29T06:43:54.408Z,98252.66
2023-01-29T06:46:22.748Z,98253.35
2023-01-29T06:48:51.987Z,98251.97
2023-01-29T06:51:21.438Z,98248.96
2023-01-29T06:53:49.823Z,98260.98
2023-01-29T06:56:18.862Z,98263.98
2023-01-29T06:58:47.341Z,98267.85
2023-01-29T07:01:33.439Z,98268.48
2023-01-29T07:04:04.506Z,98259.43
2023-01-29T07:06:33.577Z,98260.01
2023-01-29T07:09:03.135Z,98261.59
2023-01-29T07:11:32.250Z,98264.98
2023-01-29T07:14:00.553Z,98259.61
2023-01-29T07:16:28.808Z,98254.85
2023-01-29T07:18:57.174Z,98249.80
2023-01-29T07:21:25.645Z,98250.11
2023-01-29T07:23:53.990Z,98249.48
2023-01-29T07:26:22.435Z,98244.61
2023-01-29T07:28:50.841Z,98245.80
2023-01-29T07:31:23.011Z,98251.20
2023-01-29T07:33:51.555Z,98256.44
2023-01-29T07:36:19.984Z,98254.41
2023-01-29T07:38:51.818Z,98254.80
2023-01-29T07:41:20.168Z,98257.86
2023-01-29T07:43:48.789Z,98262.32
2023-01-29T07:46:17.121Z,98265.19
2023-01-29T07:48:45.531Z,98264.86
2023-01-29T07:51:13.982Z,98269.42
2023-01-29T07:53:44.449Z,98270.81
2023-01-29T07:56:18.011Z,98263.88
2023-01-29T07:58:46.536Z,98258.08
2023-01-29T08:01:14.961Z,98254.35
2023-01-29T08:03:43.251Z,98258.35
2023-01-29T08:06:11.497Z,98258.50
2023-01-29T08:08:39.849Z,98257.27
2023-01-29T08:11:08.740Z,98260.61
2023-01-29T08:13:37.197Z,98264.36
2023-01-29T08:16:06.172Z,98263.23
2023-01-29T08:18:38.006Z,98269.22
2023-01-29T08:21:06.300Z,98272.44
2023-01-29T08:23:34.623Z,98273.81
2023-01-29T08:26:03.918Z,98272.98
2023-01-29T08:28:32.504Z,98278.63
2023-01-29T08:31:02.052Z,98285.27
2023-01-29T08:33:39.367Z,98288.30
2023-01-29T08:36:08.890Z,98288.55
2023-01-29T08:38:37.375Z,98288.60
2023-01-29T08:41:06.432Z,98290.02
2023-01-29T08:43:37.237Z,98288.98
2023-01-29T08:46:07.082Z,98288.77
2023-01-29T08:48:36.353Z,98289.64
2023-01-29T08:51:05.366Z,98293.73
2023-01-29T08:53:33.714Z,98297.34
2023-01-29T08:56:01.974Z,98305.52
2023-01-29T08:58:30.450Z,98306.83
2023-01-29T09:01:16.284Z,98304.41
2023-01-29T09:03:44.790Z,98303.62
2023-01-29T09:06:14.902Z,98302.78
2023-01-29T09:08:43.252Z,98299.31
2023-01-29T09:11:11.740Z,98304.63
2023-01-29T09:13:40.769Z,98303.30
2023-01-29T09:16:09.824Z,98303.54
2023-01-29T09:18:38.037Z,98304.08
2023-01-29T09:21:06.403Z,98304.50
2023-01-29T09:23:34.965Z,98301.59
2023-01-29T09:26:03.366Z,98298.23
2023-01-29T09:28:31.686Z,98298.11
2023-01-29T09:31:03.462Z,98302.08
2023-01-29T09:33:32.581Z,98297.64
2023-01-29T09:36:04.944Z,98297.27
2023-01-29T09:38:35.666Z,98296.00
2023-01-29T09:41:29.413Z,98289.38
2023-01-29T09:44:03.704Z,98283.92
2023-01-29T09:46:39.818Z,98280.83
2023-01-29T09:49:12.852Z,98276.52
2023-01-29T09:51:46.302Z,98270.70
2023-01-29T09:54:29.684Z,98267.57
2023-01-29T09:56:58.325Z,98265.77
2023-01-29T09:59:32.832Z,98263.98
2023-01-29T10:02:36.882Z,98268.34
2023-01-29T10:05:08.082Z,98267.85
2023-01-29T10:07:48.616Z,98262.77
2023-01-29T10:10:29.892Z,98268.23
2023-01-29T10:13:28.614Z,98270.29
2023-01-29T10:16:22.070Z,98269.80
2023-01-29T10:19:33.941Z,98271.86
2023-01-29T10:22:14.187Z,98270.40
2023-01-29T10:24:54.254Z,98273.75
2023-01-29T10:27:23.603Z,98274.41
2023-01-29T10:29:54.605Z,98278.23
2023-01-29T10:32:27.101Z,98280.46
2023-01-29T10:35:03.628Z,98286.33
2023-01-29T10:37:42.797Z,98288.87
2023-01-29T10:40:23.847Z,98280.14
2023-01-29T10:42:58.190Z,98276.69
2023-01-29T10:45:31.462Z,98272.73
2023-01-29T10:48:47.194Z,98277.55
2023-01-29T10:51:33.398Z,98275.50
2023-01-29T10:54:34.074Z,98274.79
2023-01-29T10:57:27.192Z,98276.58
2023-01-29T10:59:55.436Z,98279.85
2023-01-29T11:02:23.731Z,98277.27
2023-01-29T11:04:52.215Z,98279.21
2023-01-29T11:07:26.697Z,98282.64
2023-01-29T11:10:02.846Z,98282.95
2023-01-29T11:12:33.560Z,98278.89
2023-01-29T11:15:23.046Z,98278.94
2023-01-29T11:18:10.786Z,98278.29
2023-01-29T11:20:39.817Z,98278.61
2023-01-29T11:23:27.899Z,98277.05
2023-01-29T11:26:09.652Z,98274.13
2023-01-29T11:28:44.606Z,98272.40
2023-01-29T11:31:50.592Z,98273.41
2023-01-29T11:34:23.941Z,98269.23
2023-01-29T11:37:15.793Z,98264.51
2023-01-29T11:39:50.970Z,98264.11
2023-01-29T11:42:21.738Z,98264.73
2023-01-29T11:44:50.108Z,98261.73
2023-01-29T11:47:24.138Z,98257.09
2023-01-29T11:50:02.926Z,98250.91
2023-01-29T11:52:41.048Z,98251.85
2023-01-29T11:55:23.641Z,98253.23
2023-01-29T11:58:17.590Z,98255.20
2023-01-29T12:00:55.819Z,98253.84
2023-01-29T12:03:44.057Z,98246.73
2023-01-29T12:06:23.107Z,98246.05
2023-01-29T12:09:01.548Z,98242.20
2023-01-29T12:11:32.196Z,98241.02
2023-01-29T12:14:03.622Z,98243.42
2023-01-29T12:16:38.045Z,98242.16
2023-01-29T12:19:28.794Z,98241.17
2023-01-29T12:22:38.928Z,98236.92
2023-01-29T12:25:23.183Z,98233.90
2023-01-29T12:28:24.172Z,98230.64
2023-01-29T12:31:13.958Z,98227.48
2023-01-29T12:33:51.767Z,98228.81
2023-01-29T12:36:20.187Z,98229.58
2023-01-29T12:38:48.575Z,98226.15
2023-01-29T12:41:35.235Z,98234.31
2023-01-29T12:44:12.540Z,98232.38
2023-01-29T12:46:50.777Z,98229.02
2023-01-29T12:49:25.134Z,98231.30
2023-01-29T12:52:02.736Z,98236.55
2023-01-29T12:55:00.927Z,98237.55
2023-01-29T12:57:55.561Z,98235.87
2023-01-29T13:00:36.580Z,98231.98
2023-01-29T13:03:15.026Z,98233.45
2023-01-29T13:05:55.615Z,98235.89
2023-01-29T13:08:34.924Z,98233.15
2023-01-29T13:11:13.428Z,98234.23
2023-01-29T13:13:54.435Z,98235.06
2023-01-29T13:16:28.182Z,98237.54
2023-01-29T13:19:00.157Z,98234.16
2023-01-29T13:21:39.628Z,98235.45
2023-01-29T13:24:21.700Z,98229.63
2023-01-29T13:26:53.932Z,98227.79
2023-01-29T13:29:28.380Z,98229.45
2023-01-29T13:32:00.163Z,98230.80
2023-01-29T13:34:49.205Z,98227.33
2023-01-29T13:37:32.247Z,98230.67
2023-01-29T13:40:01.462Z,98231.77
2023-01-29T13:42:46.428Z,98232.72
2023-01-29T13:45:20.471Z,98235.30
2023-01-29T13:47:50.841Z,98235.40
2023-01-29T13:50:35.727Z,98238.39
2023-01-29T13:53:06.071Z,98237.71
2023-01-29T13:55:34.297Z,98239.80
2023-01-29T13:58:04.523Z,98240.95
2023-01-29T14:00:35.586Z,98240.55
2023-01-29T14:03:04.853Z,98236.91
2023-01-29T14:06:04.783Z,98244.35
2023-01-29T14:08:38.785Z,98245.63
2023-01-29T14:11:20.491Z,98240.98
2023-01-29T14:13:50.084Z,98239.90
2023-01-29T14:16:18.217Z,98243.06
2023-01-29T14:18:49.253Z,98239.52
2023-01-29T14:21:29.723Z,98241.08
2023-01-29T14:24:21.519Z,98241.88
2023-01-29T14:26:55.739Z,98244.94
2023-01-29T14:29:38.218Z,98248.31
2023-01-29T14:32:06.486Z,98246.83
2023-01-29T14:35:20.951Z,98246.16
2023-01-29T14:37:56.557Z,98247.66
2023-01-29T14:40:28.153Z,98253.02
2023-01-29T14:42:56.365Z,98253.37
2023-01-29T14:45:39.926Z,98254.19
2023-01-29T14:48:11.269Z,98253.49
2023-01-29T14:50:43.670Z,98252.80
2023-01-29T14:53:21.165Z,98255.70
2023-01-29T14:56:11.413Z,98257.42
2023-01-29T14:58:56.081Z,98253.86
2023-01-29T15:01:37.755Z,98254.16
2023-01-29T15:04:32.477Z,98257.52
2023-01-29T15:07:10.197Z,98261.84
2023-01-29T15:10:20.994Z,98269.52
2023-01-29T15:12:56.480Z,98273.36
2023-01-29T15:15:57.532Z,98274.66
2023-01-29T15:18:40.130Z,98275.81
2023-01-29T15:21:12.150Z,98277.34
2023-01-29T15:23:41.663Z,98277.38
2023-01-29T15:26:16.287Z,98279.48
2023-01-29T15:28:51.870Z,98277.65
2023-01-29T15:31:27.902Z,98275.16
2023-01-29T15:33:57.079Z,98271.30
2023-01-29T15:36:31.652Z,98271.44
2023-01-29T15:39:12.433Z,98267.27
2023-01-29T15:41:40.844Z,98267.48
2023-01-29T15:44:16.772Z,98266.62
2023-01-29T15:46:59.483Z,98270.35
2023-01-29T15:49:36.123Z,98274.34
2023-01-29T15:52:16.280Z,98280.11
2023-01-29T15:54:45.681Z,98276.27
2023-01-29T15:57:25.827Z,98274.11
2023-01-29T15:59:56.745Z,98272.79
2023-01-29T16:02:43.275Z,98274.73
2023-01-29T16:05:19.691Z,98278.33
2023-01-29T16:07:51.859Z,98279.45
2023-01-29T16:10:23.092Z,98282.27
2023-01-29T16:12:53.234Z,98275.39
2023-01-29T16:15:35.006Z,98273.20
2023-01-29T16:18:25.028Z,98269.82
2023-01-29T16:20:57.270Z,98265.86
2023-01-29T16:23:31.107Z,98258.52
2023-01-29T16:26:08.685Z,98256.94
2023-01-29T16:28:41.902Z,98258.20
2023-01-29T16:31:11.312Z,98259.31
2023-01-29T16:33:42.456Z,98263.73
2023-01-29T16:36:18.692Z,98266.94
2023-01-29T16:38:51.794Z,98263.09
2023-01-29T16:41:24.082Z,98262.86
2023-01-29T16:43:57.957Z,98267.33
2023-01-29T16:46:38.536Z,98269.13
2023-01-29T16:49:31.078Z,98270.63
2023-01-29T16:52:37.996Z,98273.14
2023-01-29T16:55:12.096Z,98279.02
2023-01-29T16:57:41.164Z,98285.32
2023-01-29T17:00:21.152Z,98282.70
2023-01-29T17:02:52.995Z,98283.19
2023-01-29T17:05:26.183Z,98284.00
2023-01-29T17:08:03.440Z,98284.73
2023-01-29T17:10:33.067Z,98284.65
2023-01-29T17:13:08.747Z,98286.71
2023-01-29T17:15:46.197Z,98287.66
2023-01-29T17:18:21.543Z,98288.77
2023-01-29T17:20:54.803Z,98291.43
2023-01-29T17:23:23.457Z,98289.81
2023-01-29T17:25:51.957Z,98288.88
2023-01-29T17:28:20.453Z,98288.85
2023-01-29T17:31:04.967Z,98289.54
2023-01-29T17:33:35.975Z,98286.16
2023-01-29T17:36:04.562Z,98285.94
2023-01-29T17:38:33.775Z,98284.15
2023-01-29T17:41:27.120Z,98287.34
2023-01-29T17:43:55.474Z,98284.55
2023-01-29T17:46:23.897Z,98281.95
2023-01-29T17:48:52.571Z,98283.34
2023-01-29T17:51:21.909Z,98285.54
2023-01-29T17:53:58.672Z,98286.50
2023-01-29T17:56:28.011Z,98289.48
2023-01-29T17:58:56.511Z,98286.35
2023-01-29T18:01:24.858Z,98284.10
2023-01-29T18:03:53.247Z,98285.54
2023-01-29T18:06:28.508Z,98290.11
2023-01-29T18:08:57.062Z,98295.50
2023-01-29T18:11:25.489Z,98298.15
2023-01-29T18:13:53.821Z,98300.15
2023-01-29T18:16:31.298Z,98299.75
2023-01-29T18:18:59.640Z,98299.33
2023-01-29T18:21:29.838Z,98300.95
2023-01-29T18:23:58.244Z,98301.46
2023-01-29T18:26:26.678Z,98300.08
2023-01-29T18:28:55.258Z,98298.91
2023-01-29T18:31:23.527Z,98300.95
2023-01-29T18:33:51.877Z,98302.54
2023-01-29T18:36:21.141Z,98301.54
2023-01-29T18:38:49.445Z,98304.77
2023-01-29T18:41:20.387Z,98309.02
2023-01-29T18:43:48.673Z,98315.61
2023-01-29T18:46:17.011Z,98314.36
2023-01-29T18:48:45.419Z,98310.28
2023-01-29T18:51:13.905Z,98314.64
2023-01-29T18:53:42.210Z,98313.05
2023-01-29T18:56:11.025Z,98307.89
2023-01-29T18:58:40.303Z,98310.70
2023-01-29T19:01:12.223Z,98311.27
2023-01-29T19:03:42.387Z,98309.96
2023-01-29T19:06:12.296Z,98310.73
2023-01-29T19:08:41.196Z,98307.03
2023-01-29T19:11:12.718Z,98306.02
2023-01-29T19:13:42.804Z,98305.60
2023-01-29T19:16:13.577Z,98306.02
2023-01-29T19:18:42.554Z,98304.91
2023-01-29T19:21:14.344Z,98308.43
2023-01-29T19:23:45.171Z,98312.88
2023-01-29T19:26:13.806Z,98315.55
2023-01-29T19:28:42.451Z,98316.59
2023-01-29T19:31:11.490Z,98317.41
2023-01-29T19:33:40.117Z,98325.53
2023-01-29T19:36:08.983Z,98325.39
2023-01-29T19:38:38.927Z,98324.05
2023-01-29T19:41:07.210Z,98323.27
2023-01-29T19:43:38.294Z,98316.94
2023-01-29T19:46:07.821Z,98319.06
2023-01-29T19:48:36.150Z,98314.27
2023-01-29T19:51:08.791Z,98320.27
2023-01-29T19:53:38.074Z,98324.65
2023-01-29T19:56:09.499Z,98324.04
2023-01-29T19:58:38.351Z,98325.96
2023-01-29T20:01:13.359Z,98325.77
2023-01-29T20:03:48.018Z,98323.00
2023-01-29T20:06:19.235Z,98324.51
2023-01-29T20:08:47.549Z,98322.17
2023-01-29T20:11:18.981Z,98320.15
2023-01-29T20:13:49.852Z,98321.43
2023-01-29T20:16:20.521Z,98318.86
2023-01-29T20:18:53.893Z,98321.30
2023-01-29T20:21:22.755Z,98320.98
2023-01-29T20:23:52.435Z,98317.21
2023-01-29T20:26:22.208Z,98319.14
2023-01-29T20:28:50.886Z,98319.77
2023-01-29T20:31:19.258Z,98315.36
2023-01-29T20:33:47.540Z,98318.14
2023-01-29T20:36:16.066Z,98315.45
2023-01-29T20:38:44.852Z,98316.11
2023-01-29T20:41:15.092Z,98318.50
2023-01-29T20:43:44.499Z,98318.41
2023-01-29T20:46:13.345Z,98318.38
2023-01-29T20:48:42.181Z,98321.04
2023-01-29T20:51:15.780Z,98320.96
2023-01-29T20:53:46.485Z,98319.70
2023-01-29T20:56:17.252Z,98317.30
2023-01-29T20:58:47.001Z,98316.91
2023-01-29T21:01:20.584Z,98312.10
2023-01-29T21:03:48.980Z,98309.70
2023-01-29T21:06:17.308Z,98307.92
2023-01-29T21:08:45.584Z,98305.34
2023-01-29T21:11:13.936Z,98302.20
2023-01-29T21:13:44.102Z,98299.59
2023-01-29T21:16:13.148Z,98303.52
2023-01-29T21:18:41.487Z,98304.27
2023-01-29T21:21:09.808Z,98303.75
2023-01-29T21:23:38.202Z,98304.65
2023-01-29T21:26:07.333Z,98304.36
2023-01-29T21:28:36.014Z,98299.63
2023-01-29T21:31:06.804Z,98303.54
2023-01-29T21:33:35.374Z,98309.40
2023-01-29T21:36:04.379Z,98309.27
2023-01-29T21:38:33.098Z,98312.83
2023-01-29T21:41:07.229Z,98315.28
2023-01-29T21:43:36.661Z,98313.94
2023-01-29T21:46:12.103Z,98318.47
2023-01-29T21:48:41.401Z,98317.59
2023-01-29T21:51:09.794Z,98310.77
2023-01-29T21:53:38.179Z,98310.15
2023-01-29T21:56:06.778Z,98303.07
2023-01-29T21:58:35.274Z,98302.85
2023-01-29T22:01:35.317Z,98300.04
2023-01-29T22:03:52.279Z,98297.19
2023-01-29T22:06:21.155Z,98301.53
2023-01-29T22:08:51.049Z,98300.08
2023-01-29T22:11:19.551Z,98300.34
2023-01-29T22:13:47.915Z,98296.08
2023-01-29T22:16:16.333Z,98288.88
2023-01-29T22:18:44.678Z,98283.05
2023-01-29T22:21:13.015Z,98283.73
2023-01-29T22:23:41.435Z,98282.13
2023-01-29T22:26:11.201Z,98281.23
2023-01-29T22:28:39.511Z,98283.40
2023-01-29T22:31:07.749Z,98284.50
2023-01-29T22:33:36.342Z,98285.45
2023-01-29T22:36:05.095Z,98282.77
2023-01-29T22:38:33.377Z,98281.61
2023-01-29T22:41:01.875Z,98280.80
2023-01-29T22:43:30.637Z,98279.23
2023-01-29T22:45:58.891Z,98275.44
2023-01-29T22:48:28.815Z,98270.59
2023-01-29T22:51:10.877Z,98266.55
2023-01-29T22:53:54.090Z,98267.60
2023-01-29T22:56:25.787Z,98266.45
2023-01-29T22:58:56.548Z,98266.81
2023-01-29T23:01:28.087Z,98268.82
2023-01-29T23:03:56.940Z,98268.30
2023-01-29T23:06:25.358Z,98270.29
2023-01-29T23:08:53.785Z,98271.33
2023-01-29T23:11:23.647Z,98276.79
2023-01-29T23:13:55.768Z,98282.85
2023-01-29T23:16:27.679Z,98284.80
2023-01-29T23:18:56.577Z,98284.98
2023-01-29T23:21:25.679Z,98281.77
2023-01-29T23:23:55.525Z,98281.41
2023-01-29T23:26:42.728Z,98283.23
2023-01-29T23:29:11.179Z,98280.34
2023-01-29T23:31:40.082Z,98284.02
2023-01-29T23:34:08.590Z,98282.11
2023-01-29T23:36:37.454Z,98282.10
2023-01-29T23:39:06.349Z,98283.23
2023-01-29T23:41:34.885Z,98282.98
2023-01-29T23:44:03.445Z,98283.13
2023-01-29T23:46:32.673Z,98281.69
2023-01-29T23:49:01.203Z,98281.73
2023-01-29T23:51:29.753Z,98277.64
2023-01-29T23:53:57.983Z,98274.95
2023-01-29T23:56:26.433Z,98266.59
2023-01-29T23:58:56.222Z,98262.86
